Time;durP1;ratioP1;P1;durP2;ratioP2;P2;SDS_P1;SDS_P2;PMS_P1;PMS_P2;Temp;Humidity;BMP_temperature;BMP_pressure;BME280_temperature;BME280_humidity;BME280_pressure;Samples;Min_cycle;Max_cycle;Signal;HPM_P1;HPM_P2
2023/10/29 00:00:32;;;;;;;1.87;0.97;;;13.50;99.90;;;;;;5069232;28;20464;-70
2023/10/29 00:02:58;;;;;;;2.17;1.20;;;13.50;99.90;;;;;;5067884;28;20182;-71
2023/10/29 00:05:24;;;;;;;2.33;1.03;;;13.50;99.90;;;;;;5069023;28;20183;-71
2023/10/29 00:07:50;;;;;;;3.00;1.43;;;13.50;99.90;;;;;;5068911;28;20705;-70
2023/10/29 00:10:18;;;;;;;2.70;1.20;;;13.50;99.90;;;;;;5067668;28;20421;-70
2023/10/29 00:12:44;;;;;;;2.07;1.03;;;13.50;99.90;;;;;;5068818;28;20191;-70
2023/10/29 00:15:10;;;;;;;3.03;0.90;;;13.40;99.90;;;;;;5069042;28;20426;-70
2023/10/29 00:17:36;;;;;;;2.20;1.10;;;13.40;99.90;;;;;;5067244;28;20211;-70
2023/10/29 00:20:03;;;;;;;2.17;1.00;;;13.40;99.90;;;;;;5068909;28;20479;-70
2023/10/29 00:22:28;;;;;;;1.80;1.10;;;13.40;99.90;;;;;;5068451;28;20421;-70
2023/10/29 00:24:54;;;;;;;2.00;0.83;;;13.40;99.90;;;;;;5068583;28;20422;-71
2023/10/29 00:27:20;;;;;;;2.53;1.00;;;13.40;99.90;;;;;;5067093;28;20222;-70
2023/10/29 00:29:46;;;;;;;8.03;1.63;;;13.40;99.90;;;;;;5068345;28;20200;-70
2023/10/29 00:32:13;;;;;;;3.60;1.13;;;13.50;99.90;;;;;;5068496;28;20228;-70
2023/10/29 00:34:38;;;;;;;1.63;0.80;;;13.50;99.90;;;;;;5068557;28;20792;-70
2023/10/29 00:37:04;;;;;;;1.50;0.80;;;13.50;99.90;;;;;;5068277;28;20478;-70
2023/10/29 00:39:30;;;;;;;3.63;0.93;;;13.50;99.90;;;;;;5068115;28;20222;-71
2023/10/29 00:41:56;;;;;;;1.53;0.90;;;13.50;99.90;;;;;;5066531;28;20658;-70
2023/10/29 00:44:22;;;;;;;4.00;1.20;;;13.50;99.90;;;;;;5066750;28;20432;-70
2023/10/29 00:46:48;;;;;;;4.33;1.10;;;13.50;99.90;;;;;;5067869;28;20215;-70
2023/10/29 00:49:14;;;;;;;1.43;0.73;;;13.60;99.90;;;;;;5068064;28;20211;-70
2023/10/29 00:51:40;;;;;;;1.40;0.83;;;13.70;99.90;;;;;;5068100;28;20891;-70
2023/10/29 00:54:07;;;;;;;2.67;1.33;;;13.70;99.90;;;;;;5068181;28;20191;-70
2023/10/29 00:56:33;;;;;;;1.90;0.80;;;13.70;99.90;;;;;;5068228;28;20428;-70
2023/10/29 00:59:00;;;;;;;1.37;0.73;;;13.70;99.90;;;;;;5068311;28;21088;-70
2023/10/29 01:01:26;;;;;;;1.10;0.87;;;13.70;99.90;;;;;;5067967;28;20488;-70
2023/10/29 01:03:51;;;;;;;1.10;0.73;;;13.80;99.90;;;;;;5066680;28;20413;-70
2023/10/29 01:06:17;;;;;;;2.77;1.13;;;13.80;99.70;;;;;;5067966;28;20507;-70
2023/10/29 01:08:43;;;;;;;1.60;0.80;;;14.00;98.10;;;;;;5066884;28;20367;-70
2023/10/29 01:11:09;;;;;;;1.73;0.80;;;13.90;98.40;;;;;;5068056;28;20511;-71
2023/10/29 01:13:34;;;;;;;3.60;1.00;;;13.90;98.60;;;;;;5068217;28;20964;-71
2023/10/29 01:16:04;;;;;;;2.80;0.87;;;14.00;98.20;;;;;;5066572;28;20183;-70
2023/10/29 01:18:31;;;;;;;2.73;0.90;;;13.90;97.70;;;;;;5066486;28;20217;-70
2023/10/29 01:20:57;;;;;;;1.17;0.70;;;14.00;97.20;;;;;;5067687;28;20606;-70
2023/10/29 01:23:23;;;;;;;2.00;0.60;;;14.00;97.20;;;;;;5066570;28;20516;-70
2023/10/29 01:25:50;;;;;;;2.50;0.80;;;14.00;96.10;;;;;;5067499;28;20414;-70
2023/10/29 01:28:16;;;;;;;2.93;1.20;;;14.10;96.10;;;;;;5067517;28;20485;-70
2023/10/29 01:30:41;;;;;;;1.63;1.00;;;14.10;95.90;;;;;;5067572;28;20503;-71
2023/10/29 01:33:07;;;;;;;1.60;0.73;;;14.10;95.70;;;;;;5067992;28;20174;-71
2023/10/29 01:35:33;;;;;;;1.37;0.90;;;14.00;95.70;;;;;;5068164;28;20187;-71
2023/10/29 01:38:00;;;;;;;2.13;0.77;;;13.90;95.80;;;;;;5068014;28;20450;-70
2023/10/29 01:40:25;;;;;;;1.77;0.77;;;13.90;97.10;;;;;;5068068;28;21081;-71
2023/10/29 01:42:52;;;;;;;2.77;1.00;;;13.90;96.70;;;;;;5068044;28;20424;-70
2023/10/29 01:45:17;;;;;;;1.30;0.80;;;13.80;97.30;;;;;;5067983;28;20175;-71
2023/10/29 01:47:43;;;;;;;1.63;0.83;;;13.70;97.00;;;;;;5066392;28;20452;-70
2023/10/29 01:50:09;;;;;;;1.97;1.10;;;13.70;97.20;;;;;;5067986;28;20534;-70
2023/10/29 01:52:38;;;;;;;1.67;0.83;;;13.70;97.50;;;;;;5068101;28;20661;-70
2023/10/29 01:55:08;;;;;;;2.70;0.93;;;13.60;97.50;;;;;;5066557;28;20893;-71
2023/10/29 01:57:37;;;;;;;3.23;0.80;;;13.50;96.90;;;;;;5067686;28;20440;-71
2023/10/29 02:00:06;;;;;;;1.80;0.80;;;13.50;95.60;;;;;;5069960;28;20979;-71
2023/10/29 02:02:35;;;;;;;1.50;0.90;;;13.60;97.10;;;;;;5070437;28;20502;-71
2023/10/29 02:05:04;;;;;;;1.43;0.83;;;13.60;94.70;;;;;;5071715;28;20431;-71
2023/10/29 02:07:30;;;;;;;1.00;0.80;;;13.70;94.10;;;;;;5070105;28;20990;-71
2023/10/29 02:09:56;;;;;;;1.13;0.70;;;13.70;94.80;;;;;;5071232;28;20425;-70
2023/10/29 02:12:21;;;;;;;1.57;0.80;;;13.60;95.00;;;;;;5071390;28;20427;-70
2023/10/29 02:14:47;;;;;;;2.03;0.70;;;13.60;95.90;;;;;;5071287;28;20182;-70
2023/10/29 02:17:13;;;;;;;1.20;0.83;;;13.60;95.90;;;;;;5069692;28;20186;-71
2023/10/29 02:19:38;;;;;;;4.93;0.93;;;13.50;95.00;;;;;;5070887;28;20216;-70
2023/10/29 02:22:04;;;;;;;2.23;1.00;;;13.40;96.10;;;;;;5071021;28;20179;-70
2023/10/29 02:24:29;;;;;;;1.63;1.00;;;13.20;97.70;;;;;;5071120;28;20981;-70
2023/10/29 02:26:55;;;;;;;1.13;0.60;;;13.20;95.10;;;;;;5069330;28;20696;-70
2023/10/29 02:29:21;;;;;;;1.10;0.50;;;13.20;95.70;;;;;;5071118;28;20175;-71
2023/10/29 02:31:46;;;;;;;1.20;0.80;;;13.20;95.20;;;;;;5070953;28;20188;-70
2023/10/29 02:34:12;;;;;;;2.43;1.10;;;13.20;94.50;;;;;;5071435;28;20653;-70
2023/10/29 02:36:38;;;;;;;3.70;1.17;;;13.20;95.80;;;;;;5069864;28;20190;-70
2023/10/29 02:39:03;;;;;;;3.13;0.93;;;13.20;96.20;;;;;;5071042;28;20580;-70
2023/10/29 02:41:31;;;;;;;2.67;1.10;;;13.00;98.10;;;;;;5069701;28;20219;-71
2023/10/29 02:43:58;;;;;;;3.27;0.93;;;12.90;97.90;;;;;;5069547;28;20183;-71
2023/10/29 02:46:24;;;;;;;2.67;1.00;;;12.90;97.60;;;;;;5070760;28;20424;-70
2023/10/29 02:48:50;;;;;;;2.70;0.97;;;13.00;94.60;;;;;;5070924;28;20432;-69
2023/10/29 02:51:15;;;;;;;1.60;0.63;;;13.10;92.90;;;;;;5070740;28;20421;-70
2023/10/29 02:53:41;;;;;;;1.97;0.80;;;13.30;91.10;;;;;;5070941;28;20285;-70
2023/10/29 02:56:07;;;;;;;1.10;0.70;;;13.60;90.00;;;;;;5070690;28;20556;-70
2023/10/29 02:58:33;;;;;;;2.40;0.80;;;13.60;90.60;;;;;;5070428;28;20439;-70
2023/10/29 03:01:08;;;;;;;2.87;0.80;;;13.60;90.40;;;;;;5070462;28;20971;-70
2023/10/29 03:03:35;;;;;;;1.67;0.73;;;13.70;89.50;;;;;;5070758;28;20187;-70
2023/10/29 03:06:09;;;;;;;2.20;0.70;;;13.70;89.20;;;;;;5069001;28;20421;-70
2023/10/29 03:08:36;;;;;;;1.00;0.60;;;13.70;90.00;;;;;;5070367;28;20440;-71
2023/10/29 03:11:02;;;;;;;1.33;0.70;;;13.70;88.00;;;;;;5068834;28;20413;-71
2023/10/29 03:13:29;;;;;;;1.00;0.70;;;13.70;90.00;;;;;;5070284;28;20416;-70
2023/10/29 03:15:56;;;;;;;1.87;0.73;;;13.70;87.90;;;;;;5069852;28;20418;-70
2023/10/29 03:18:21;;;;;;;2.43;0.80;;;13.70;88.20;;;;;;5070847;28;20464;-70
2023/10/29 03:20:47;;;;;;;1.87;0.50;;;13.90;86.40;;;;;;5070262;28;20861;-71
2023/10/29 03:23:13;;;;;;;1.20;0.80;;;13.90;85.40;;;;;;5069093;28;20222;-70
2023/10/29 03:25:39;;;;;;;1.57;0.80;;;14.00;83.80;;;;;;5069973;28;20444;-70
2023/10/29 03:28:05;;;;;;;0.90;0.70;;;14.00;84.10;;;;;;5069787;28;20268;-69
2023/10/29 03:30:31;;;;;;;0.90;0.60;;;14.00;83.20;;;;;;5069988;28;20426;-70
2023/10/29 03:32:56;;;;;;;0.80;0.60;;;14.00;85.20;;;;;;5070028;28;20240;-70
2023/10/29 03:35:25;;;;;;;1.50;0.60;;;13.90;84.30;;;;;;5069576;28;20260;-70
2023/10/29 03:37:51;;;;;;;5.23;0.83;;;13.90;85.10;;;;;;5069577;28;20304;-70
2023/10/29 03:40:16;;;;;;;5.03;0.60;;;13.90;83.50;;;;;;5069541;28;20677;-70
2023/10/29 03:42:42;;;;;;;1.50;0.70;;;13.90;85.10;;;;;;5068262;28;20515;-70
2023/10/29 03:45:08;;;;;;;4.90;0.60;;;13.80;85.30;;;;;;5068081;28;20194;-70
2023/10/29 03:47:33;;;;;;;0.90;0.60;;;13.80;84.50;;;;;;5069597;28;20208;-70
2023/10/29 03:49:59;;;;;;;6.70;0.90;;;13.80;86.10;;;;;;5067944;28;20857;-71
2023/10/29 03:52:24;;;;;;;1.20;0.77;;;13.70;86.90;;;;;;5067973;28;20253;-71
2023/10/29 03:54:50;;;;;;;1.20;0.60;;;13.70;86.20;;;;;;5069382;28;20221;-71
2023/10/29 03:57:16;;;;;;;0.90;0.60;;;13.80;84.50;;;;;;5069033;28;20214;-70
2023/10/29 03:59:41;;;;;;;1.93;0.70;;;13.70;85.20;;;;;;5069291;28;20224;-70
2023/10/29 04:02:07;;;;;;;4.10;0.80;;;13.80;84.00;;;;;;5069207;28;20233;-70
2023/10/29 04:04:33;;;;;;;1.00;0.83;;;13.80;83.50;;;;;;5069207;28;20233;-70
2023/10/29 04:06:59;;;;;;;0.90;0.67;;;13.80;83.60;;;;;;5067501;28;20210;-70
2023/10/29 04:09:24;;;;;;;1.03;0.70;;;13.80;86.10;;;;;;5068918;28;20900;-70
2023/10/29 04:11:50;;;;;;;2.50;0.70;;;13.70;88.30;;;;;;5068826;28;20453;-70
2023/10/29 04:14:16;;;;;;;1.37;0.90;;;13.60;88.50;;;;;;5068973;28;20213;-70
2023/10/29 04:16:41;;;;;;;2.50;0.63;;;13.50;90.00;;;;;;5068990;28;20964;-70
2023/10/29 04:19:07;;;;;;;1.27;0.67;;;13.40;90.60;;;;;;5068801;28;20242;-69
2023/10/29 04:21:32;;;;;;;2.40;0.90;;;13.40;87.60;;;;;;5068465;28;20214;-70
2023/10/29 04:23:58;;;;;;;4.00;0.90;;;13.40;89.00;;;;;;5069101;28;20191;-71
2023/10/29 04:26:23;;;;;;;2.53;0.73;;;13.40;90.40;;;;;;5067796;28;20210;-69
2023/10/29 04:28:49;;;;;;;1.00;0.67;;;13.40;89.20;;;;;;5068812;28;20214;-71
2023/10/29 04:31:14;;;;;;;1.23;0.67;;;13.50;88.10;;;;;;5068703;28;20282;-71
2023/10/29 04:33:40;;;;;;;1.63;0.77;;;13.50;89.40;;;;;;5068549;28;20194;-69
2023/10/29 04:36:06;;;;;;;1.67;0.70;;;13.40;90.80;;;;;;5050428;28;20731;-70
2023/10/29 04:38:35;;;;;;;1.97;0.90;;;13.50;90.30;;;;;;5068610;28;20282;-70
2023/10/29 04:41:01;;;;;;;2.83;0.70;;;13.60;90.10;;;;;;5070469;28;20215;-69
2023/10/29 04:43:26;;;;;;;1.20;0.80;;;13.60;90.70;;;;;;5068446;28;20429;-70
2023/10/29 04:45:52;;;;;;;2.40;0.60;;;13.60;92.10;;;;;;5069199;28;20429;-70
2023/10/29 04:48:18;;;;;;;1.03;0.50;;;13.60;93.10;;;;;;5069273;28;20283;-70
2023/10/29 04:50:43;;;;;;;1.20;0.70;;;13.70;89.40;;;;;;5053253;28;20716;-69
2023/10/29 04:53:09;;;;;;;1.00;0.77;;;13.80;91.60;;;;;;5052910;28;20210;-70
2023/10/29 04:55:34;;;;;;;1.00;0.67;;;13.90;91.40;;;;;;5069493;28;20191;-70
2023/10/29 04:58:00;;;;;;;2.80;0.60;;;14.00;91.00;;;;;;5070623;28;20234;-70
2023/10/29 05:00:26;;;;;;;0.80;0.50;;;14.00;88.70;;;;;;5071406;28;20297;-71
2023/10/29 05:02:51;;;;;;;0.80;0.50;;;14.20;87.00;;;;;;5069894;28;20551;-70
2023/10/29 05:05:17;;;;;;;1.63;0.70;;;14.20;89.50;;;;;;5071665;28;20340;-71
2023/10/29 05:07:44;;;;;;;5.13;1.07;;;14.30;91.70;;;;;;5071056;28;20207;-70
2023/10/29 05:10:11;;;;;;;3.53;0.83;;;14.50;86.00;;;;;;5070108;28;20243;-69
2023/10/29 05:12:37;;;;;;;0.93;0.60;;;14.40;86.40;;;;;;5071493;28;20925;-70
2023/10/29 05:15:03;;;;;;;3.10;0.70;;;14.50;86.90;;;;;;5068979;28;20471;-69
2023/10/29 05:17:29;;;;;;;4.87;1.30;;;14.70;85.00;;;;;;5069449;28;20212;-69
2023/10/29 05:19:55;;;;;;;1.70;0.90;;;14.90;86.40;;;;;;5052067;28;20580;-70
2023/10/29 05:22:21;;;;;;;2.10;0.63;;;14.90;84.90;;;;;;5070081;28;20432;-71
2023/10/29 05:24:47;;;;;;;1.80;0.80;;;15.00;84.30;;;;;;5069856;28;20409;-71
2023/10/29 05:27:13;;;;;;;2.17;0.60;;;15.10;87.30;;;;;;5067860;28;20445;-71
2023/10/29 05:29:38;;;;;;;3.53;0.87;;;15.10;89.20;;;;;;5069615;28;20190;-71
2023/10/29 05:32:05;;;;;;;2.40;0.80;;;15.10;90.10;;;;;;5052043;28;20265;-71
2023/10/29 05:34:30;;;;;;;0.97;0.70;;;14.90;90.20;;;;;;5069094;28;20186;-71
2023/10/29 05:36:56;;;;;;;1.37;0.77;;;14.90;91.80;;;;;;5052188;28;20527;-71
2023/10/29 05:39:21;;;;;;;1.33;0.70;;;14.90;90.20;;;;;;5069105;28;20209;-71
2023/10/29 05:41:47;;;;;;;0.87;0.60;;;14.80;87.70;;;;;;5069032;28;20191;-71
2023/10/29 05:44:14;;;;;;;0.80;0.40;;;14.80;86.20;;;;;;5068616;28;20208;-70
2023/10/29 05:46:39;;;;;;;3.07;1.30;;;15.00;84.80;;;;;;5052613;28;20183;-71
2023/10/29 05:49:05;;;;;;;1.00;0.83;;;15.00;85.30;;;;;;5069691;28;20908;-70
2023/10/29 05:51:31;;;;;;;1.77;0.70;;;15.00;92.10;;;;;;5034684;28;20245;-71
2023/10/29 05:53:56;;;;;;;2.07;0.77;;;15.00;86.80;;;;;;5069283;28;20476;-71
2023/10/29 05:56:23;;;;;;;1.47;0.90;;;15.00;91.10;;;;;;5067719;28;20734;-72
2023/10/29 05:58:48;;;;;;;1.03;0.57;;;15.10;88.20;;;;;;5068687;28;20200;-71
2023/10/29 06:01:14;;;;;;;1.63;0.70;;;15.20;90.60;;;;;;5069147;28;20479;-71
2023/10/29 06:03:40;;;;;;;2.00;0.70;;;15.30;90.70;;;;;;5067572;28;20184;-71
2023/10/29 06:06:06;;;;;;;2.33;0.80;;;15.20;89.30;;;;;;5068768;28;20186;-71
2023/10/29 06:08:31;;;;;;;2.70;0.73;;;15.20;88.70;;;;;;5067465;28;20863;-71
2023/10/29 06:10:57;;;;;;;1.77;0.60;;;15.30;90.20;;;;;;5050803;28;20435;-72
2023/10/29 06:13:23;;;;;;;1.17;0.80;;;15.40;91.20;;;;;;5068870;28;20190;-71
2023/10/29 06:15:48;;;;;;;1.23;0.50;;;15.50;89.40;;;;;;5067475;28;20193;-70
2023/10/29 06:18:16;;;;;;;1.13;0.60;;;15.50;89.60;;;;;;5068743;28;20207;-70
2023/10/29 06:20:42;;;;;;;1.00;0.63;;;15.60;89.40;;;;;;5051638;28;20215;-70
2023/10/29 06:23:08;;;;;;;2.60;0.80;;;15.60;89.50;;;;;;5068896;28;20409;-70
2023/10/29 06:25:34;;;;;;;3.03;0.53;;;15.60;89.00;;;;;;5068331;28;20422;-71
2023/10/29 06:28:00;;;;;;;2.63;1.23;;;15.60;87.80;;;;;;5068202;28;20516;-71
2023/10/29 06:30:25;;;;;;;1.10;0.80;;;15.60;89.10;;;;;;5050863;28;20188;-72
2023/10/29 06:32:51;;;;;;;1.40;0.60;;;15.60;87.40;;;;;;5051573;28;20187;-72
2023/10/29 06:35:17;;;;;;;1.53;0.73;;;15.70;87.10;;;;;;5067492;28;20211;-71
2023/10/29 06:37:44;;;;;;;4.10;0.90;;;15.80;92.40;;;;;;5050604;28;20209;-71
2023/10/29 06:40:10;;;;;;;2.80;0.60;;;15.90;86.40;;;;;;5068397;28;20214;-70
2023/10/29 06:42:36;;;;;;;0.87;0.60;;;15.90;86.50;;;;;;5067328;28;20440;-71
2023/10/29 06:45:02;;;;;;;1.00;0.60;;;15.90;87.60;;;;;;5051386;28;20440;-70
2023/10/29 06:47:27;;;;;;;2.07;1.00;;;15.90;88.80;;;;;;5071862;28;20436;-70
2023/10/29 06:49:55;;;;;;;2.27;1.00;;;15.80;90.50;;;;;;5070810;28;20929;-71
2023/10/29 06:52:21;;;;;;;3.20;0.80;;;15.80;90.20;;;;;;5054268;28;20192;-72
2023/10/29 06:54:47;;;;;;;1.47;0.70;;;15.80;89.10;;;;;;5071788;28;21086;-71
2023/10/29 06:57:12;;;;;;;2.33;0.80;;;15.80;88.40;;;;;;5070252;28;20434;-72
2023/10/29 06:59:39;;;;;;;1.20;0.80;;;15.80;88.20;;;;;;5070526;28;20222;-70
2023/10/29 07:02:05;;;;;;;1.10;0.63;;;15.70;89.20;;;;;;5072482;28;20771;-70
2023/10/29 07:04:32;;;;;;;1.43;0.50;;;15.80;89.30;;;;;;5072756;28;20474;-70
2023/10/29 07:06:57;;;;;;;1.00;0.60;;;15.80;88.10;;;;;;5054586;28;20434;-69
2023/10/29 07:09:23;;;;;;;0.90;0.53;;;15.70;88.40;;;;;;5071693;28;20431;-69
2023/10/29 07:11:49;;;;;;;1.93;0.60;;;15.70;88.60;;;;;;5036924;28;20747;-69
2023/10/29 07:14:15;;;;;;;1.20;0.80;;;15.70;86.60;;;;;;5070524;28;20226;-70
2023/10/29 07:16:44;;;;;;;1.60;0.70;;;15.70;87.10;;;;;;5071661;28;20418;-68
2023/10/29 07:19:11;;;;;;;1.17;0.70;;;15.70;84.50;;;;;;5069629;28;21016;-69
2023/10/29 07:21:37;;;;;;;1.67;1.10;;;15.80;85.50;;;;;;5071241;28;20472;-70
2023/10/29 07:24:05;;;;;;;1.10;0.60;;;15.80;85.10;;;;;;5070316;28;21045;-69
2023/10/29 07:26:31;;;;;;;1.47;1.00;;;15.80;85.30;;;;;;5071518;28;20474;-69
2023/10/29 07:28:57;;;;;;;1.20;0.60;;;15.80;88.00;;;;;;5052989;28;20449;-70
2023/10/29 07:31:22;;;;;;;1.00;0.60;;;15.80;86.20;;;;;;5036342;28;20453;-69
2023/10/29 07:33:48;;;;;;;1.97;0.60;;;15.90;87.00;;;;;;5071311;28;20484;-69
2023/10/29 07:36:14;;;;;;;0.97;0.70;;;15.90;86.90;;;;;;5070910;28;20554;-69
2023/10/29 07:38:39;;;;;;;0.90;0.63;;;15.90;86.30;;;;;;5070849;28;20208;-70
2023/10/29 07:41:05;;;;;;;1.43;0.60;;;15.90;86.70;;;;;;5070922;28;20328;-70
2023/10/29 07:43:31;;;;;;;1.17;0.50;;;16.00;86.30;;;;;;5053092;28;20521;-70
2023/10/29 07:46:04;;;;;;;1.00;0.60;;;16.00;88.80;;;;;;5036646;28;20289;-70
2023/10/29 07:48:29;;;;;;;1.27;0.90;;;16.00;86.30;;;;;;5071178;28;20223;-68
2023/10/29 07:50:55;;;;;;;1.67;0.60;;;16.00;87.20;;;;;;5069594;28;20817;-68
2023/10/29 07:53:21;;;;;;;2.00;0.67;;;16.00;86.40;;;;;;5070910;28;20243;-69
2023/10/29 07:55:47;;;;;;;3.43;0.77;;;16.00;87.60;;;;;;5070754;28;20235;-68
2023/10/29 07:58:12;;;;;;;1.97;0.70;;;15.90;89.00;;;;;;5069534;28;20207;-69
2023/10/29 08:00:39;;;;;;;1.00;0.60;;;15.90;87.90;;;;;;5070470;28;20218;-69
2023/10/29 08:03:04;;;;;;;1.37;0.80;;;16.00;90.00;;;;;;5070266;28;20226;-69
2023/10/29 08:05:30;;;;;;;2.80;0.80;;;16.00;90.90;;;;;;5069195;28;20513;-68
2023/10/29 08:07:55;;;;;;;1.23;0.90;;;16.00;89.70;;;;;;5069956;28;20251;-69
2023/10/29 08:10:23;;;;;;;1.97;0.50;;;16.00;89.10;;;;;;5070302;28;20192;-69
2023/10/29 08:12:49;;;;;;;1.00;0.80;;;16.00;89.10;;;;;;5070145;28;20183;-69
2023/10/29 08:15:15;;;;;;;2.03;0.73;;;16.00;87.90;;;;;;5070380;28;20941;-70
2023/10/29 08:17:40;;;;;;;1.80;0.83;;;16.00;90.00;;;;;;5068098;28;20217;-70
2023/10/29 08:20:06;;;;;;;1.23;0.73;;;16.10;88.90;;;;;;5068557;28;20324;-70
2023/10/29 08:22:32;;;;;;;1.33;0.90;;;16.30;92.80;;;;;;5068452;28;20703;-71
2023/10/29 08:24:59;;;;;;;1.47;0.90;;;16.30;92.40;;;;;;5068713;28;20425;-71
2023/10/29 08:27:25;;;;;;;1.63;0.60;;;16.20;88.10;;;;;;5068294;28;20228;-70
2023/10/29 08:29:52;;;;;;;1.57;0.80;;;16.40;90.20;;;;;;5068493;28;20419;-70
2023/10/29 08:32:17;;;;;;;1.03;0.70;;;16.50;92.60;;;;;;5068291;28;20422;-71
2023/10/29 08:34:43;;;;;;;4.20;1.03;;;16.60;91.70;;;;;;5068460;28;20889;-69
2023/10/29 08:37:10;;;;;;;0.90;0.50;;;16.70;93.40;;;;;;5066755;28;20192;-70
2023/10/29 08:39:36;;;;;;;2.20;0.70;;;16.70;94.30;;;;;;5068199;28;20865;-70
2023/10/29 08:42:02;;;;;;;3.03;0.87;;;16.80;91.20;;;;;;5068280;28;20416;-70
2023/10/29 08:44:28;;;;;;;4.00;1.00;;;16.70;92.50;;;;;;5068030;28;20427;-70
2023/10/29 08:46:54;;;;;;;1.20;0.70;;;16.70;91.50;;;;;;5067878;28;21165;-71
2023/10/29 08:49:19;;;;;;;2.73;1.00;;;16.70;92.00;;;;;;5067811;28;20497;-69
2023/10/29 08:51:45;;;;;;;11.83;0.90;;;16.90;92.10;;;;;;5068015;28;20182;-70
2023/10/29 08:54:11;;;;;;;1.57;0.93;;;17.00;92.90;;;;;;5066286;28;20553;-69
2023/10/29 08:56:36;;;;;;;1.30;0.60;;;17.00;93.30;;;;;;5068102;28;20929;-70
2023/10/29 08:59:06;;;;;;;0.87;0.50;;;17.20;93.30;;;;;;5068055;28;20347;-69
2023/10/29 09:01:32;;;;;;;1.40;0.70;;;17.40;93.80;;;;;;5067664;28;20212;-69
2023/10/29 09:03:58;;;;;;;1.53;0.73;;;17.50;94.00;;;;;;5067775;28;20417;-70
2023/10/29 09:06:24;;;;;;;1.43;0.87;;;17.60;94.40;;;;;;5067617;28;20419;-70
2023/10/29 09:08:51;;;;;;;1.30;1.00;;;17.80;95.10;;;;;;5067349;28;20979;-70
2023/10/29 09:11:17;;;;;;;3.13;0.80;;;17.80;94.50;;;;;;5067564;28;20590;-70
2023/10/29 09:13:42;;;;;;;3.43;0.80;;;17.70;93.80;;;;;;5067770;28;20462;-70
2023/10/29 09:16:08;;;;;;;1.30;0.70;;;17.60;93.50;;;;;;5066225;28;20462;-70
2023/10/29 09:18:34;;;;;;;10.20;6.07;;;17.50;91.90;;;;;;5067455;28;20273;-70
2023/10/29 09:21:00;;;;;;;3.43;2.17;;;17.40;93.20;;;;;;5066308;28;20463;-70
2023/10/29 09:23:27;;;;;;;3.70;2.10;;;17.30;94.30;;;;;;5067521;28;20506;-70
2023/10/29 09:25:53;;;;;;;2.03;1.20;;;17.20;97.00;;;;;;5065901;28;20187;-70
2023/10/29 09:28:20;;;;;;;2.27;0.90;;;17.20;97.30;;;;;;5065926;28;20906;-70
2023/10/29 09:30:47;;;;;;;3.27;1.50;;;17.20;96.30;;;;;;5067519;28;20184;-70
2023/10/29 09:33:15;;;;;;;1.80;1.40;;;17.00;96.90;;;;;;5065978;28;20453;-70
2023/10/29 09:35:41;;;;;;;2.70;1.47;;;17.10;98.90;;;;;;5067910;28;20794;-69
2023/10/29 09:38:07;;;;;;;3.80;1.70;;;17.10;98.90;;;;;;5067439;28;20467;-69
2023/10/29 09:40:32;;;;;;;4.20;1.70;;;16.90;99.30;;;;;;5065589;28;20497;-70
2023/10/29 09:43:03;;;;;;;5.30;1.70;;;16.80;99.90;;;;;;5065941;28;20192;-70
2023/10/29 09:45:29;;;;;;;4.80;1.80;;;16.80;99.90;;;;;;5067483;28;20597;-70
2023/10/29 09:47:59;;;;;;;8.00;2.37;;;16.80;99.90;;;;;;5067181;28;20444;-70
2023/10/29 09:50:25;;;;;;;4.43;2.07;;;16.90;99.90;;;;;;5067272;28;20570;-70
2023/10/29 09:52:55;;;;;;;2.47;1.83;;;17.10;99.90;;;;;;5067187;28;20537;-70
2023/10/29 09:55:22;;;;;;;4.37;1.40;;;17.30;99.90;;;;;;5067230;28;20424;-69
2023/10/29 09:57:51;;;;;;;2.70;1.43;;;17.30;99.90;;;;;;5067090;28;20449;-70
2023/10/29 10:00:17;;;;;;;1.73;1.00;;;17.40;99.90;;;;;;5065685;28;20472;-70
2023/10/29 10:02:53;;;;;;;8.57;0.70;;;17.40;99.90;;;;;;5067463;28;20413;-70
2023/10/29 10:05:21;;;;;;;1.57;0.87;;;17.50;99.90;;;;;;5067236;28;20770;-71
2023/10/29 10:07:47;;;;;;;0.80;0.50;;;17.60;99.90;;;;;;5067060;28;20520;-70
2023/10/29 10:10:13;;;;;;;0.87;0.60;;;17.60;99.90;;;;;;5067083;28;20429;-70
2023/10/29 10:12:46;;;;;;;1.20;0.93;;;17.60;99.90;;;;;;5066890;28;20506;-70
2023/10/29 10:15:13;;;;;;;1.37;1.00;;;17.60;99.90;;;;;;5067082;28;20417;-70
2023/10/29 10:17:44;;;;;;;1.10;0.77;;;17.70;99.90;;;;;;5067110;28;20436;-70
2023/10/29 10:20:11;;;;;;;1.73;0.80;;;17.70;99.90;;;;;;5067853;28;21108;-70
2023/10/29 10:22:37;;;;;;;1.60;0.70;;;17.70;99.90;;;;;;5070891;28;20421;-70
2023/10/29 10:25:03;;;;;;;1.53;0.67;;;17.80;99.90;;;;;;5070404;28;20572;-71
2023/10/29 10:27:29;;;;;;;4.80;0.90;;;17.90;99.90;;;;;;5070486;28;20264;-70
2023/10/29 10:29:55;;;;;;;1.43;0.70;;;18.00;99.90;;;;;;5070720;28;20424;-69
2023/10/29 10:32:24;;;;;;;2.10;0.90;;;18.00;99.90;;;;;;5069431;28;20456;-70
2023/10/29 10:34:52;;;;;;;1.83;0.60;;;18.00;99.90;;;;;;5070455;28;20566;-70
2023/10/29 10:37:18;;;;;;;6.67;1.07;;;18.00;99.90;;;;;;5070507;28;20442;-70
2023/10/29 10:39:44;;;;;;;1.70;1.00;;;18.00;99.90;;;;;;5070392;28;20483;-70
2023/10/29 10:42:09;;;;;;;2.67;0.80;;;18.00;99.90;;;;;;5070264;28;20186;-69
2023/10/29 10:44:36;;;;;;;1.93;0.60;;;18.00;99.90;;;;;;5070185;28;20266;-69
2023/10/29 10:47:03;;;;;;;2.33;0.77;;;18.00;99.90;;;;;;5070108;28;20214;-70
2023/10/29 10:49:34;;;;;;;2.00;0.60;;;18.10;99.90;;;;;;5070351;28;20502;-70
2023/10/29 10:52:02;;;;;;;1.20;0.70;;;18.10;99.90;;;;;;5070387;28;20418;-69
2023/10/29 10:54:29;;;;;;;2.50;0.60;;;18.10;99.90;;;;;;5070165;28;20757;-70
2023/10/29 10:56:56;;;;;;;2.50;0.77;;;18.20;99.90;;;;;;5070178;28;20439;-71
2023/10/29 10:59:22;;;;;;;1.37;0.83;;;18.30;99.90;;;;;;5068492;28;20421;-70
2023/10/29 11:01:49;;;;;;;1.00;0.70;;;18.30;99.90;;;;;;5069928;28;20477;-71
2023/10/29 11:04:15;;;;;;;4.77;0.80;;;18.30;99.90;;;;;;5070247;28;20421;-70
2023/10/29 11:06:42;;;;;;;1.93;0.77;;;18.30;99.90;;;;;;5070026;28;21146;-70
2023/10/29 11:09:13;;;;;;;3.70;0.90;;;18.50;99.90;;;;;;5068467;28;20812;-70
2023/10/29 11:11:48;;;;;;;1.37;0.60;;;18.50;99.90;;;;;;5051940;28;20799;-70
2023/10/29 11:14:16;;;;;;;1.00;0.60;;;18.50;99.90;;;;;;5070010;28;20922;-70
2023/10/29 11:16:56;;;;;;;1.13;0.60;;;18.50;99.90;;;;;;5069654;28;20477;-70
2023/10/29 11:19:44;;;;;;;2.07;0.70;;;18.50;99.70;;;;;;5068953;28;20427;-69
2023/10/29 11:22:29;;;;;;;2.13;0.80;;;18.50;99.90;;;;;;5069889;28;20490;-70
2023/10/29 11:25:11;;;;;;;2.07;0.60;;;18.40;99.80;;;;;;5069875;28;20419;-70
2023/10/29 11:27:38;;;;;;;1.17;0.70;;;18.40;99.60;;;;;;5069801;28;20455;-70
2023/10/29 11:30:21;;;;;;;0.80;0.53;;;18.40;99.60;;;;;;5069921;28;20501;-70
2023/10/29 11:33:09;;;;;;;3.53;0.63;;;18.50;98.90;;;;;;5069227;28;20420;-70
2023/10/29 11:35:36;;;;;;;1.83;0.50;;;18.50;98.80;;;;;;5070784;28;20429;-69
2023/10/29 11:38:29;;;;;;;3.23;0.50;;;18.60;98.10;;;;;;5070357;28;20463;-69
2023/10/29 11:40:56;;;;;;;1.20;0.67;;;18.60;99.20;;;;;;5070357;28;20517;-70
2023/10/29 11:43:22;;;;;;;1.27;0.73;;;18.60;98.50;;;;;;5070148;28;20415;-70
2023/10/29 11:46:01;;;;;;;2.73;0.70;;;18.60;99.30;;;;;;5069964;28;20459;-70
2023/10/29 11:48:29;;;;;;;0.80;0.40;;;18.70;98.80;;;;;;5068337;28;20951;-70
2023/10/29 11:51:21;;;;;;;1.37;0.50;;;18.80;98.60;;;;;;5069903;28;20491;-70
2023/10/29 11:53:46;;;;;;;1.30;0.60;;;18.90;99.00;;;;;;5065860;28;20447;-70
2023/10/29 11:56:13;;;;;;;1.27;0.60;;;19.00;98.70;;;;;;5068268;28;20421;-70
2023/10/29 11:58:39;;;;;;;1.57;0.60;;;19.10;98.70;;;;;;5069567;28;20698;-69
2023/10/29 12:01:06;;;;;;;1.17;0.60;;;19.10;98.70;;;;;;5069624;28;20468;-69
2023/10/29 12:03:32;;;;;;;0.90;0.50;;;19.10;98.40;;;;;;5068106;28;20773;-70
2023/10/29 12:05:58;;;;;;;1.27;0.70;;;19.10;98.10;;;;;;5068059;28;20511;-70
2023/10/29 12:08:24;;;;;;;1.00;0.50;;;19.10;98.00;;;;;;5069223;28;20320;-69
2023/10/29 12:10:52;;;;;;;1.00;0.53;;;19.10;98.40;;;;;;5067712;28;20432;-69
2023/10/29 12:13:18;;;;;;;1.37;0.70;;;19.20;98.50;;;;;;5069730;28;20421;-71
2023/10/29 12:15:54;;;;;;;0.70;0.40;;;19.30;98.80;;;;;;5069400;28;20417;-70
2023/10/29 12:18:20;;;;;;;1.00;0.70;;;19.30;98.70;;;;;;5069280;28;20471;-71
2023/10/29 12:20:47;;;;;;;1.00;0.60;;;19.40;98.10;;;;;;5069214;28;21040;-71
2023/10/29 12:23:13;;;;;;;0.90;0.63;;;19.50;99.10;;;;;;5069142;28;20819;-71
2023/10/29 12:25:39;;;;;;;1.47;0.53;;;19.70;98.50;;;;;;5067656;28;20421;-71
2023/10/29 12:28:05;;;;;;;1.53;0.60;;;20.00;99.10;;;;;;5069005;28;20534;-70
2023/10/29 12:30:39;;;;;;;0.80;0.50;;;20.00;98.30;;;;;;5050847;28;20630;-71
2023/10/29 12:33:20;;;;;;;1.00;0.60;;;20.00;98.60;;;;;;5068899;28;20431;-70
2023/10/29 12:35:50;;;;;;;1.30;0.70;;;19.90;98.60;;;;;;5069255;28;20422;-70
2023/10/29 12:38:17;;;;;;;0.90;0.70;;;19.90;98.90;;;;;;5068955;28;20532;-72
2023/10/29 12:41:05;;;;;;;1.27;0.60;;;19.90;98.70;;;;;;5068828;28;20532;-71
2023/10/29 12:43:40;;;;;;;3.17;0.70;;;19.90;99.20;;;;;;5068468;28;20412;-71
2023/10/29 12:46:11;;;;;;;1.23;0.70;;;19.90;99.40;;;;;;5067578;28;20434;-70